createdAt,value
2022-12-11T00:01:21.847Z,8.18
2022-12-11T00:03:50.522Z,7.72
2022-12-11T00:06:22.066Z,7.40
2022-12-11T00:08:54.562Z,8.40
2022-12-11T00:11:24.060Z,7.55
2022-12-11T00:13:52.523Z,8.23
2022-12-11T00:16:26.551Z,8.88
2022-12-11T00:18:55.501Z,8.38
2022-12-11T00:21:24.061Z,7.47
2022-12-11T00:23:53.852Z,8.23
2022-12-11T00:26:22.366Z,7.18
2022-12-11T00:28:54.184Z,7.57
2022-12-11T00:31:23.344Z,7.88
2022-12-11T00:33:52.362Z,6.80
2022-12-11T00:36:22.563Z,7.45
2022-12-11T00:38:51.439Z,7.85
2022-12-11T00:41:21.789Z,7.32
2022-12-11T00:43:50.366Z,8.13
2022-12-11T00:46:19.368Z,7.78
2022-12-11T00:48:49.836Z,7.72
2022-12-11T00:53:46.740Z,7.68
2022-12-11T00:56:17.940Z,7.72
2022-12-11T00:58:48.546Z,7.20
2022-12-11T01:01:19.229Z,8.18
2022-12-11T01:03:48.110Z,8.10
2022-12-11T01:06:18.375Z,7.50
2022-12-11T01:11:16.515Z,7.70
2022-12-11T01:13:46.316Z,7.93
2022-12-11T01:16:16.889Z,7.47
2022-12-11T01:18:45.531Z,7.13
2022-12-11T01:21:15.112Z,6.65
2022-12-11T01:23:43.545Z,5.50
2022-12-11T01:26:15.080Z,5.95
2022-12-11T01:28:44.158Z,6.18
2022-12-11T01:31:13.576Z,5.57
2022-12-11T01:33:43.808Z,6.75
2022-12-11T01:36:14.547Z,5.75
2022-12-11T01:38:43.364Z,5.95
2022-12-11T01:41:12.532Z,6.13
2022-12-11T01:44:01.673Z,5.47
2022-12-11T01:46:32.085Z,6.20
2022-12-11T01:51:34.232Z,5.65
2022-12-11T01:54:08.628Z,6.05
2022-12-11T01:56:38.980Z,5.30
2022-12-11T02:01:42.247Z,5.20
2022-12-11T02:04:13.367Z,5.82
2022-12-11T02:06:44.009Z,5.28
2022-12-11T02:09:15.164Z,5.35
2022-12-11T02:11:53.654Z,5.45
2022-12-11T02:14:33.566Z,5.45
2022-12-11T02:17:07.824Z,5.47
2022-12-11T02:20:03.227Z,4.38
2022-12-11T02:22:45.814Z,4.50
2022-12-11T02:25:21.826Z,5.28
2022-12-11T02:27:56.643Z,4.68
2022-12-11T02:30:26.689Z,5.85
2022-12-11T02:32:57.497Z,5.85
2022-12-11T02:35:31.563Z,4.70
2022-12-11T02:38:03.796Z,4.75
2022-12-11T02:40:36.467Z,4.05
2022-12-11T02:43:08.879Z,3.75
2022-12-11T02:45:41.325Z,3.67
2022-12-11T02:48:12.895Z,3.85
2022-12-11T02:50:46.856Z,4.18
2022-12-11T02:53:21.506Z,4.00
2022-12-11T02:55:55.319Z,3.45
2022-12-11T02:58:27.760Z,4.05
2022-12-11T03:00:58.173Z,3.20
2022-12-11T03:03:26.809Z,3.47
2022-12-11T03:05:55.263Z,3.50
2022-12-11T03:08:23.707Z,3.67
2022-12-11T03:10:52.258Z,2.65
2022-12-11T03:13:22.431Z,3.33
2022-12-11T03:16:04.834Z,3.00
2022-12-11T03:18:40.498Z,3.20
2022-12-11T03:21:13.987Z,2.70
2022-12-11T03:23:48.910Z,2.38
2022-12-11T03:26:19.773Z,2.67
2022-12-11T03:28:52.084Z,2.58
2022-12-11T03:31:27.132Z,3.10
2022-12-11T03:33:59.695Z,2.78
2022-12-11T03:36:33.025Z,2.83
2022-12-11T03:39:06.839Z,2.90
2022-12-11T03:41:38.751Z,2.92
2022-12-11T03:44:08.119Z,3.33
2022-12-11T03:46:40.922Z,3.28
2022-12-11T03:49:16.466Z,4.10
2022-12-11T03:51:46.881Z,4.68
2022-12-11T03:56:46.582Z,4.20
2022-12-11T03:59:15.278Z,3.88
2022-12-11T04:01:45.194Z,4.22
2022-12-11T04:04:14.136Z,4.20
2022-12-11T04:06:42.696Z,4.80
2022-12-11T04:09:11.163Z,4.60
2022-12-11T04:11:39.685Z,4.88
2022-12-11T04:14:27.680Z,5.03
2022-12-11T04:16:58.225Z,4.68
2022-12-11T04:19:45.200Z,4.75
2022-12-11T04:22:29.602Z,4.75
2022-12-11T04:24:58.093Z,5.90
2022-12-11T04:27:46.661Z,6.22
2022-12-11T04:30:18.540Z,7.35
2022-12-11T04:32:48.709Z,6.78
2022-12-11T04:35:17.883Z,5.95
2022-12-11T04:37:46.801Z,6.55
2022-12-11T04:40:18.141Z,6.32
2022-12-11T04:42:47.112Z,6.03
2022-12-11T04:45:15.888Z,6.35
2022-12-11T04:47:44.291Z,7.53
2022-12-11T04:50:15.346Z,6.75
2022-12-11T04:52:44.153Z,7.55
2022-12-11T04:55:13.738Z,6.00
2022-12-11T04:57:42.514Z,6.97
2022-12-11T05:00:12.833Z,6.22
2022-12-11T05:02:43.109Z,6.30
2022-12-11T05:05:12.372Z,5.53
2022-12-11T05:07:42.477Z,6.38
2022-12-11T05:10:11.265Z,6.57
2022-12-11T05:12:39.712Z,6.93
2022-12-11T05:15:09.468Z,7.30
2022-12-11T05:17:38.243Z,7.20
2022-12-11T05:20:07.828Z,6.18
2022-12-11T05:22:36.532Z,6.35
2022-12-11T05:25:07.994Z,6.20
2022-12-11T05:27:36.636Z,5.95
2022-12-11T05:30:05.983Z,5.68
2022-12-11T05:32:34.528Z,6.32
2022-12-11T05:35:03.698Z,5.15
2022-12-11T05:37:34.031Z,4.18
2022-12-11T05:40:02.927Z,5.63
2022-12-11T05:42:32.805Z,5.50
2022-12-11T05:45:01.399Z,4.82
2022-12-11T05:47:29.900Z,5.63
2022-12-11T05:49:58.401Z,5.32
2022-12-11T05:52:27.377Z,5.70
2022-12-11T05:54:55.878Z,5.60
2022-12-11T05:57:24.494Z,5.57
2022-12-11T05:59:54.354Z,5.03
2022-12-11T06:02:22.992Z,4.93
2022-12-11T06:04:51.553Z,4.97
2022-12-11T06:07:20.110Z,4.65
2022-12-11T06:09:48.563Z,4.70
2022-12-11T06:12:17.127Z,4.82
2022-12-11T06:14:45.903Z,4.43
2022-12-11T06:17:15.716Z,4.25
2022-12-11T06:19:44.247Z,4.13
2022-12-11T06:22:12.663Z,4.75
2022-12-11T06:24:41.151Z,4.28
2022-12-11T06:27:10.179Z,4.53
2022-12-11T06:29:38.650Z,3.55
2022-12-11T06:32:07.141Z,4.22
2022-12-11T06:34:37.021Z,4.93
2022-12-11T06:37:05.513Z,4.57
2022-12-11T06:39:34.024Z,4.15
2022-12-11T06:42:02.622Z,5.18
2022-12-11T06:44:31.036Z,5.38
2022-12-11T06:46:59.765Z,5.68
2022-12-11T06:49:28.319Z,5.63
2022-12-11T06:51:58.477Z,5.47
2022-12-11T06:54:27.880Z,6.18
2022-12-11T06:56:56.297Z,5.57
2022-12-11T06:59:24.783Z,6.00
2022-12-11T07:01:53.262Z,5.10
2022-12-11T07:04:24.605Z,5.32
2022-12-11T07:06:53.301Z,6.15
2022-12-11T07:09:23.879Z,5.53
2022-12-11T07:11:53.223Z,5.90
2022-12-11T07:14:21.852Z,5.32
2022-12-11T07:16:50.612Z,6.05
2022-12-11T07:19:19.498Z,5.25
2022-12-11T07:21:48.056Z,5.93
2022-12-11T07:24:16.771Z,6.05
2022-12-11T07:26:46.867Z,6.05
2022-12-11T07:29:15.399Z,5.95
2022-12-11T07:31:43.955Z,7.13
2022-12-11T07:34:13.915Z,9.07
2022-12-11T07:36:42.736Z,8.45
2022-12-11T07:39:12.496Z,7.82
2022-12-11T07:41:41.121Z,7.00
2022-12-11T07:44:13.901Z,6.57
2022-12-11T07:46:42.617Z,6.25
2022-12-11T07:49:11.098Z,5.43
2022-12-11T07:51:40.158Z,5.88
2022-12-11T07:54:16.331Z,5.78
2022-12-11T07:56:49.780Z,5.65
2022-12-11T07:59:22.715Z,6.03
2022-12-11T08:01:51.148Z,5.45
2022-12-11T08:04:19.631Z,5.45
2022-12-11T08:06:48.099Z,5.85
2022-12-11T08:09:20.898Z,6.53
2022-12-11T08:11:50.975Z,5.93
2022-12-11T08:14:19.622Z,6.15
2022-12-11T08:16:50.110Z,5.60
2022-12-11T08:19:18.980Z,5.95
2022-12-11T08:21:47.824Z,5.75
2022-12-11T08:24:20.166Z,6.38
2022-12-11T08:26:48.882Z,6.10
2022-12-11T08:29:17.335Z,6.30
2022-12-11T08:31:46.102Z,6.53
2022-12-11T08:34:16.006Z,5.78
2022-12-11T08:36:44.853Z,5.90
2022-12-11T08:39:13.327Z,6.68
2022-12-11T08:41:41.960Z,5.63
2022-12-11T08:44:16.742Z,6.65
2022-12-11T08:46:45.536Z,6.35
2022-12-11T08:49:14.047Z,5.18
2022-12-11T08:51:43.972Z,6.05
2022-12-11T08:54:12.770Z,5.57
2022-12-11T08:56:41.287Z,4.20
2022-12-11T08:59:09.790Z,5.15
2022-12-11T09:01:38.482Z,6.03
2022-12-11T09:04:06.959Z,5.13
2022-12-11T09:06:35.619Z,6.22
2022-12-11T09:09:06.018Z,5.95
2022-12-11T09:11:36.197Z,5.68
2022-12-11T09:14:08.008Z,5.18
2022-12-11T09:16:40.131Z,5.72
2022-12-11T09:19:10.025Z,5.50
2022-12-11T09:21:38.535Z,4.90
2022-12-11T09:24:11.139Z,5.20
2022-12-11T09:26:40.478Z,5.38
2022-12-11T09:29:10.207Z,4.80
2022-12-11T09:31:38.755Z,5.55
2022-12-11T09:34:09.689Z,5.38
2022-12-11T09:36:39.404Z,5.40
2022-12-11T09:39:10.108Z,4.97
2022-12-11T09:41:40.829Z,4.97
2022-12-11T09:44:29.696Z,5.45
2022-12-11T09:46:59.407Z,4.80
2022-12-11T09:49:35.162Z,4.03
2022-12-11T09:52:10.969Z,4.35
2022-12-11T09:54:48.362Z,4.30
2022-12-11T09:57:28.586Z,4.47
2022-12-11T10:00:15.021Z,4.53
2022-12-11T10:03:11.736Z,4.53
2022-12-11T10:05:48.345Z,4.38
2022-12-11T10:10:56.920Z,4.50
2022-12-11T10:13:40.994Z,4.55
2022-12-11T10:16:17.730Z,4.72
2022-12-11T10:18:46.292Z,4.50
2022-12-11T10:21:17.401Z,5.13
2022-12-11T10:23:51.877Z,5.22
2022-12-11T10:26:23.833Z,5.25
2022-12-11T10:28:52.502Z,4.68
2022-12-11T10:31:30.762Z,5.50
2022-12-11T10:34:03.399Z,5.05
2022-12-11T10:36:35.702Z,5.38
2022-12-11T10:39:05.239Z,5.18
2022-12-11T10:41:39.617Z,5.53
2022-12-11T10:44:19.297Z,5.28
2022-12-11T10:46:48.211Z,4.85
2022-12-11T10:49:26.120Z,5.50
2022-12-11T10:51:56.142Z,4.70
2022-12-11T10:54:33.257Z,5.03
2022-12-11T10:57:04.679Z,4.93
2022-12-11T10:59:38.430Z,4.95
2022-12-11T11:02:16.938Z,5.30
2022-12-11T11:04:46.322Z,4.78
2022-12-11T11:07:19.732Z,4.93
2022-12-11T11:09:48.650Z,5.18
2022-12-11T11:12:24.569Z,5.25
2022-12-11T11:15:04.148Z,4.63
2022-12-11T11:17:35.053Z,4.68
2022-12-11T11:20:14.128Z,4.70
2022-12-11T11:22:46.804Z,5.07
2022-12-11T11:25:21.272Z,8.63
2022-12-11T11:27:53.858Z,5.72
2022-12-11T11:30:24.311Z,5.55
2022-12-11T11:32:55.884Z,5.82
2022-12-11T11:35:26.950Z,6.72
2022-12-11T11:38:01.650Z,6.43
2022-12-11T11:40:32.181Z,5.72
2022-12-11T11:43:08.793Z,6.18
2022-12-11T11:45:44.225Z,5.70
2022-12-11T11:48:25.730Z,6.03
2022-12-11T11:50:57.275Z,7.18
2022-12-11T11:53:31.484Z,5.97
2022-12-11T11:56:13.582Z,6.97
2022-12-11T11:58:49.918Z,5.80
2022-12-11T12:01:21.883Z,5.40
2022-12-11T12:03:51.453Z,5.20
2022-12-11T12:06:34.106Z,5.63
2022-12-11T12:09:17.917Z,4.43
2022-12-11T12:11:55.504Z,4.22
2022-12-11T12:17:31.502Z,5.22
2022-12-11T12:20:08.858Z,4.93
2022-12-11T12:22:59.264Z,4.63
2022-12-11T12:25:35.910Z,5.20
2022-12-11T12:28:23.306Z,4.07
2022-12-11T12:31:05.801Z,4.00
2022-12-11T12:33:44.413Z,4.65
2022-12-11T12:36:19.084Z,5.18
2022-12-11T12:38:54.942Z,5.45
2022-12-11T12:41:31.029Z,5.03
2022-12-11T12:44:16.494Z,4.97
2022-12-11T12:46:54.534Z,5.03
2022-12-11T12:49:31.857Z,4.38
2022-12-11T12:52:01.425Z,4.05
2022-12-11T12:54:33.060Z,4.40
2022-12-11T12:57:05.244Z,3.83
2022-12-11T12:59:33.728Z,3.55
2022-12-11T13:02:06.381Z,3.97
2022-12-11T13:04:58.178Z,4.25
2022-12-11T13:07:30.715Z,4.30
2022-12-11T13:10:05.159Z,4.63
2022-12-11T13:12:45.651Z,4.70
2022-12-11T13:15:35.610Z,4.10
2022-12-11T13:18:23.528Z,4.43
2022-12-11T13:20:53.268Z,3.85
2022-12-11T13:23:29.546Z,4.28
2022-12-11T13:26:00.557Z,4.57
2022-12-11T13:28:33.247Z,4.35
2022-12-11T13:31:24.075Z,4.97
2022-12-11T13:33:57.546Z,4.25
2022-12-11T13:36:32.593Z,4.20
2022-12-11T13:39:05.770Z,4.43
2022-12-11T13:41:38.211Z,5.32
2022-12-11T13:44:08.296Z,4.53
2022-12-11T13:46:38.894Z,4.60
2022-12-11T13:49:19.643Z,5.32
2022-12-11T13:51:54.239Z,4.28
2022-12-11T13:54:22.864Z,4.75
2022-12-11T13:57:03.295Z,5.05
2022-12-11T13:59:35.062Z,4.43
2022-12-11T14:02:16.212Z,4.95
2022-12-11T14:04:47.500Z,4.60
2022-12-11T14:07:21.319Z,4.60
2022-12-11T14:09:49.828Z,5.30
2022-12-11T14:12:20.936Z,4.97
2022-12-11T14:14:52.860Z,4.38
2022-12-11T14:17:26.543Z,10.00
2022-12-11T14:20:00.344Z,5.25
2022-12-11T14:22:31.271Z,5.32
2022-12-11T14:25:03.506Z,4.70
2022-12-11T14:27:32.623Z,4.75
2022-12-11T14:30:11.740Z,5.40
2022-12-11T14:32:44.543Z,5.32
2022-12-11T14:35:24.141Z,5.15
2022-12-11T14:37:53.533Z,4.95
2022-12-11T14:40:26.446Z,5.13
2022-12-11T14:43:00.496Z,5.60
2022-12-11T14:45:34.559Z,5.63
2022-12-11T14:48:11.685Z,5.53
2022-12-11T14:50:47.413Z,5.78
2022-12-11T14:53:20.609Z,6.03
2022-12-11T14:55:50.772Z,5.80
2022-12-11T14:58:22.696Z,6.03
2022-12-11T15:00:58.973Z,6.45
2022-12-11T15:03:33.471Z,6.88
2022-12-11T15:06:04.567Z,6.32
2022-12-11T15:08:35.187Z,6.20
2022-12-11T15:11:07.650Z,6.85
2022-12-11T15:13:38.904Z,8.13
2022-12-11T15:16:08.739Z,7.68
2022-12-11T15:18:38.885Z,6.53
2022-12-11T15:21:12.123Z,7.40
2022-12-11T15:23:51.249Z,6.15
2022-12-11T15:26:20.625Z,5.80
2022-12-11T15:28:49.282Z,7.38
2022-12-11T15:31:26.822Z,6.38
2022-12-11T15:33:56.077Z,6.60
2022-12-11T15:36:28.048Z,7.22
2022-12-11T15:38:56.785Z,7.35
2022-12-11T15:41:26.039Z,6.97
2022-12-11T15:43:59.213Z,6.60
2022-12-11T15:46:28.314Z,7.00
2022-12-11T15:48:57.690Z,8.98
2022-12-11T15:51:27.733Z,6.80
2022-12-11T15:53:56.280Z,7.28
2022-12-11T15:56:24.876Z,6.40
2022-12-11T15:58:53.448Z,8.95
2022-12-11T16:01:22.299Z,7.55
2022-12-11T16:03:51.333Z,7.43
2022-12-11T16:06:19.992Z,6.75
2022-12-11T16:08:50.195Z,7.85
2022-12-11T16:11:18.914Z,7.97
2022-12-11T16:13:47.703Z,6.57
2022-12-11T16:16:16.309Z,5.85
2022-12-11T16:18:45.140Z,7.35
2022-12-11T16:21:18.298Z,6.82
2022-12-11T16:23:51.259Z,7.15
2022-12-11T16:26:19.971Z,6.90
2022-12-11T16:28:54.772Z,5.68
2022-12-11T16:31:23.512Z,5.00
2022-12-11T16:33:52.214Z,4.85
2022-12-11T16:36:21.593Z,5.70
2022-12-11T16:38:54.513Z,6.28
2022-12-11T16:41:27.638Z,5.35
2022-12-11T16:43:56.132Z,5.40
2022-12-11T16:46:25.577Z,5.80
2022-12-11T16:48:54.326Z,5.53
2022-12-11T16:51:22.998Z,4.78
2022-12-11T16:53:52.858Z,4.38
2022-12-11T16:56:21.404Z,4.00
2022-12-11T16:58:49.891Z,4.85
2022-12-11T17:01:18.461Z,5.20
2022-12-11T17:03:47.078Z,5.03
2022-12-11T17:06:18.029Z,5.03
2022-12-11T17:08:47.295Z,5.35
2022-12-11T17:11:18.789Z,5.85
2022-12-11T17:13:47.536Z,6.75
2022-12-11T17:16:17.868Z,6.55
2022-12-11T17:21:16.925Z,5.85
2022-12-11T17:23:46.203Z,6.50
2022-12-11T17:26:15.413Z,5.93
2022-12-11T17:28:45.763Z,6.65
2022-12-11T17:31:17.231Z,6.07
2022-12-11T17:33:46.842Z,6.70
2022-12-11T17:36:17.005Z,6.35
2022-12-11T17:38:45.728Z,6.53
2022-12-11T17:41:20.323Z,6.03
2022-12-11T17:43:51.902Z,5.63
2022-12-11T17:46:21.814Z,6.47
2022-12-11T17:48:50.386Z,6.15
2022-12-11T17:51:24.429Z,6.70
2022-12-11T17:53:56.391Z,6.40
2022-12-11T17:56:25.631Z,6.07
2022-12-11T17:58:55.576Z,5.88
2022-12-11T18:01:24.115Z,5.50
2022-12-11T18:03:52.603Z,5.20
2022-12-11T18:06:22.994Z,5.05
2022-12-11T18:11:22.447Z,6.25
2022-12-11T18:13:53.072Z,6.93
2022-12-11T18:18:15.839Z,18.60
2022-12-11T18:20:49.414Z,27.23
2022-12-11T18:23:17.944Z,6.97
2022-12-11T18:25:47.323Z,8.82
2022-12-11T18:28:16.085Z,8.05
2022-12-11T18:30:44.714Z,7.43
2022-12-11T18:33:14.870Z,7.35
2022-12-11T18:35:43.363Z,6.75
2022-12-11T18:38:12.552Z,6.35
2022-12-11T18:40:41.188Z,7.72
2022-12-11T18:43:09.987Z,7.43
2022-12-11T18:45:40.464Z,7.32
2022-12-11T18:48:09.787Z,5.93
2022-12-11T18:50:44.278Z,5.60
2022-12-11T18:53:13.136Z,5.78
2022-12-11T18:55:45.920Z,6.82
2022-12-11T18:58:17.148Z,6.80
2022-12-11T19:00:47.285Z,5.80
2022-12-11T19:03:17.158Z,6.13
2022-12-11T19:05:47.187Z,6.35
2022-12-11T19:08:16.418Z,5.90
2022-12-11T19:10:46.572Z,5.43
2022-12-11T19:13:15.615Z,7.00
2022-12-11T19:15:45.532Z,7.15
2022-12-11T19:18:14.889Z,6.88
2022-12-11T19:20:49.443Z,6.80
2022-12-11T19:23:20.266Z,7.13
2022-12-11T19:25:49.344Z,7.32
2022-12-11T19:28:18.628Z,6.95
2022-12-11T19:30:49.003Z,6.85
2022-12-11T19:35:46.310Z,6.72
2022-12-11T19:38:14.818Z,6.07
2022-12-11T19:40:45.639Z,6.25
2022-12-11T19:43:14.202Z,6.32
2022-12-11T19:45:42.709Z,7.18
2022-12-11T19:48:11.211Z,7.75
2022-12-11T19:50:39.711Z,7.38
2022-12-11T19:53:08.191Z,8.23
2022-12-11T19:55:36.673Z,6.65
2022-12-11T19:58:06.528Z,7.32
2022-12-11T20:00:38.318Z,6.57
2022-12-11T20:03:06.872Z,7.55
2022-12-11T20:05:35.513Z,6.38
2022-12-11T20:08:35.265Z,5.85
2022-12-11T20:10:52.707Z,8.05
2022-12-11T20:13:22.559Z,8.60
2022-12-11T20:15:51.709Z,7.57
2022-12-11T20:18:20.245Z,7.20
2022-12-11T20:20:48.792Z,8.10
2022-12-11T20:23:17.211Z,8.95
2022-12-11T20:25:45.862Z,8.38
2022-12-11T20:28:14.433Z,9.82
2022-12-11T20:30:44.399Z,8.45
2022-12-11T20:33:12.843Z,6.70
2022-12-11T20:35:41.634Z,6.88
2022-12-11T20:38:10.241Z,6.93
2022-12-11T20:40:39.036Z,7.65
2022-12-11T20:43:07.782Z,6.88
2022-12-11T20:45:36.277Z,7.38
2022-12-11T20:48:06.417Z,7.43
2022-12-11T20:50:34.981Z,7.40
2022-12-11T20:53:03.815Z,7.22
2022-12-11T20:55:32.390Z,7.55
2022-12-11T20:58:00.865Z,7.18
2022-12-11T21:00:29.423Z,9.07
2022-12-11T21:02:57.907Z,9.77
2022-12-11T21:05:28.931Z,9.18
2022-12-11T21:07:58.095Z,9.27
2022-12-11T21:10:26.626Z,9.70
2022-12-11T21:12:55.067Z,9.52
2022-12-11T21:15:23.592Z,8.95
2022-12-11T21:17:52.114Z,8.65
2022-12-11T21:20:21.202Z,9.02
2022-12-11T21:22:51.288Z,7.57
2022-12-11T21:25:20.191Z,8.52
2022-12-11T21:27:48.695Z,7.18
2022-12-11T21:30:17.535Z,7.68
2022-12-11T21:32:46.079Z,8.10
2022-12-11T21:35:15.142Z,6.90
2022-12-11T21:37:43.726Z,7.28
2022-12-11T21:40:14.604Z,7.72
2022-12-11T21:42:43.058Z,6.97
2022-12-11T21:45:52.194Z,8.35
2022-12-11T21:48:00.700Z,8.23
2022-12-11T21:50:29.286Z,7.38
2022-12-11T21:52:57.789Z,8.73
2022-12-11T21:55:27.658Z,7.35
2022-12-11T21:57:56.445Z,7.18
2022-12-11T22:00:25.169Z,6.53
2022-12-11T22:02:53.767Z,5.45
2022-12-11T22:05:22.508Z,5.75
2022-12-11T22:07:51.113Z,5.88
2022-12-11T22:10:19.636Z,5.07
2022-12-11T22:12:49.494Z,4.72
2022-12-11T22:15:18.011Z,5.63
2022-12-11T22:17:46.725Z,5.15
2022-12-11T22:20:15.211Z,5.07
2022-12-11T22:22:43.712Z,6.00
2022-12-11T22:25:12.452Z,5.93
2022-12-11T22:27:40.986Z,4.55
2022-12-11T22:30:12.290Z,5.82
2022-12-11T22:32:41.100Z,4.95
2022-12-11T22:35:11.430Z,4.82
2022-12-11T22:37:40.037Z,5.13
2022-12-11T22:40:09.792Z,4.18
2022-12-11T22:42:38.267Z,4.75
2022-12-11T22:45:07.836Z,6.05
2022-12-11T22:47:38.034Z,6.88
2022-12-11T22:50:07.765Z,6.68
2022-12-11T22:52:37.257Z,7.80
2022-12-11T22:55:06.765Z,7.75
2022-12-11T22:57:36.685Z,7.38
2022-12-11T23:00:07.540Z,7.43
2022-12-11T23:02:38.356Z,8.30
2022-12-11T23:05:07.911Z,8.23
2022-12-11T23:07:36.445Z,7.68
2022-12-11T23:10:06.007Z,8.18
2022-12-11T23:12:34.611Z,7.70
2022-12-11T23:15:03.146Z,8.57
2022-12-11T23:17:32.120Z,7.95
2022-12-11T23:20:03.886Z,8.05
2022-12-11T23:22:32.808Z,7.55
2022-12-11T23:25:01.572Z,8.95
2022-12-11T23:27:30.410Z,8.30
2022-12-11T23:29:59.576Z,8.60
2022-12-11T23:32:29.103Z,8.30
2022-12-11T23:34:57.535Z,8.20
2022-12-11T23:37:27.324Z,8.73
2022-12-11T23:39:55.856Z,8.05
2022-12-11T23:42:24.356Z,9.88
2022-12-11T23:44:52.922Z,7.95
2022-12-11T23:47:21.331Z,9.00
2022-12-11T23:49:49.912Z,7.72
2022-12-11T23:52:22.588Z,7.95
2022-12-11T23:54:55.288Z,8.20
2022-12-11T23:57:24.089Z,7.75
2022-12-11T23:59:52.597Z,6.97
